createdAt,value
2018-03-24T00:01:13.270Z,5.74
2018-03-24T00:07:03.945Z,5.93
2018-03-24T00:12:54.723Z,5.62
2018-03-24T00:18:45.491Z,5.32
2018-03-24T00:24:36.224Z,5.05
2018-03-24T00:30:26.990Z,4.95
2018-03-24T00:36:17.743Z,5.26
2018-03-24T00:42:08.447Z,4.97
2018-03-24T00:47:59.277Z,5.08
2018-03-24T00:53:49.987Z,5.11
2018-03-24T00:59:40.741Z,4.57
2018-03-24T01:05:31.487Z,5
2018-03-24T01:11:22.240Z,4.27
2018-03-24T01:17:12.973Z,4.7
2018-03-24T01:23:03.770Z,5.3
2018-03-24T01:28:54.542Z,4.96
2018-03-24T01:34:45.276Z,4.72
2018-03-24T01:40:36.001Z,6.02
2018-03-24T01:46:26.759Z,5.64
2018-03-24T01:52:17.537Z,5.94
2018-03-24T01:58:08.271Z,5.51
2018-03-24T02:03:59.031Z,5.26
2018-03-24T02:09:49.800Z,5.26
2018-03-24T02:15:40.544Z,5.43
2018-03-24T02:21:31.272Z,5.04
2018-03-24T02:27:22.076Z,5.06
2018-03-24T02:33:12.784Z,4.06
2018-03-24T02:39:03.561Z,4.87
2018-03-24T02:44:54.275Z,4.72
2018-03-24T02:50:45.046Z,5.7
2018-03-24T02:56:35.790Z,6.57
2018-03-24T03:02:26.571Z,5.6
2018-03-24T03:08:17.278Z,4.14
2018-03-24T03:14:08.054Z,4.09
2018-03-24T03:19:58.810Z,2.54
2018-03-24T03:25:49.547Z,3.25
2018-03-24T03:31:40.268Z,5.1
2018-03-24T03:37:31.036Z,4.21
2018-03-24T03:43:21.789Z,3.86
2018-03-24T03:49:12.577Z,3.54
2018-03-24T03:55:03.262Z,3.19
2018-03-24T04:00:54.003Z,2.9
2018-03-24T04:06:44.759Z,2.72
2018-03-24T04:12:35.493Z,2.58
2018-03-24T04:18:26.227Z,2.92
2018-03-24T04:24:16.978Z,2.72
2018-03-24T04:30:07.734Z,2.34
2018-03-24T04:35:58.458Z,3.08
2018-03-24T04:41:49.228Z,2.59
2018-03-24T04:47:39.914Z,3.13
2018-03-24T04:53:30.714Z,3.26
2018-03-24T04:59:21.445Z,4.22
2018-03-24T05:05:12.156Z,4.23
2018-03-24T05:11:02.928Z,3.8
2018-03-24T05:16:53.677Z,3.96
2018-03-24T05:22:44.377Z,4.38
2018-03-24T05:28:35.164Z,6.4
2018-03-24T05:34:25.890Z,9.93
2018-03-24T05:40:16.696Z,9.24
2018-03-24T05:46:07.402Z,7.99
2018-03-24T05:51:58.146Z,8.63
2018-03-24T05:57:48.886Z,8.36
2018-03-24T06:03:39.640Z,8.86
2018-03-24T06:09:30.385Z,8.9
2018-03-24T06:15:21.106Z,8.88
2018-03-24T06:21:11.884Z,10.7
2018-03-24T06:27:02.651Z,9.78
2018-03-24T06:32:53.319Z,10.38
2018-03-24T06:38:44.123Z,12.11
2018-03-24T06:44:34.788Z,11.16
2018-03-24T06:50:25.575Z,17.02
2018-03-24T06:56:16.319Z,15.04
2018-03-24T07:02:07.069Z,12.1
2018-03-24T07:07:57.827Z,14.05
2018-03-24T07:13:48.584Z,14.12
2018-03-24T07:19:39.323Z,12.83
2018-03-24T07:25:30.111Z,11.39
2018-03-24T07:31:20.871Z,12.49
2018-03-24T07:37:11.602Z,12.65
2018-03-24T07:43:02.363Z,12.26
2018-03-24T07:48:53.149Z,12.92
2018-03-24T07:54:43.885Z,12.24
2018-03-24T08:00:34.687Z,12.54
2018-03-24T08:06:25.438Z,15.33
2018-03-24T08:12:16.176Z,16.21
2018-03-24T08:18:06.970Z,13.9
2018-03-24T08:23:57.791Z,13.38
2018-03-24T08:29:48.623Z,13.8
2018-03-24T08:35:39.362Z,12.8
2018-03-24T08:41:30.138Z,9.85
2018-03-24T08:47:21.008Z,9.81
2018-03-24T08:53:11.740Z,11.29
2018-03-24T08:59:02.533Z,12.32
2018-03-24T09:04:53.374Z,13.18
2018-03-24T09:10:44.237Z,13.07
2018-03-24T09:16:35.008Z,13.86
2018-03-24T09:22:25.829Z,13.56
2018-03-24T09:28:16.668Z,13.86
2018-03-24T09:34:07.517Z,13.66
2018-03-24T09:39:58.331Z,13.98
2018-03-24T09:45:49.229Z,21.66
2018-03-24T09:51:40.076Z,12
2018-03-24T09:57:30.870Z,7.28
2018-03-24T10:03:21.743Z,5.47
2018-03-24T10:09:12.610Z,4.89
2018-03-24T10:15:03.479Z,4.7
2018-03-24T10:20:54.329Z,4.61
2018-03-24T10:26:45.223Z,4.5
2018-03-24T10:32:36.055Z,4.04
2018-03-24T10:38:26.948Z,4.51
2018-03-24T10:44:17.797Z,6.46
2018-03-24T10:50:08.742Z,5.87
2018-03-24T10:55:59.641Z,6.89
2018-03-24T11:01:50.518Z,4.01
2018-03-24T11:07:41.378Z,3.86
2018-03-24T11:13:32.277Z,4.14
2018-03-24T11:19:23.178Z,4.11
2018-03-24T11:25:14.007Z,4.84
2018-03-24T11:31:04.894Z,4.99
2018-03-24T11:36:55.736Z,3.88
2018-03-24T11:42:46.630Z,4.1
2018-03-24T11:48:37.438Z,5.1
2018-03-24T11:54:28.331Z,4.24
2018-03-24T12:00:19.164Z,4.5
2018-03-24T12:06:10.036Z,4.65
2018-03-24T12:12:00.869Z,3.57
2018-03-24T12:17:51.698Z,4
2018-03-24T12:23:42.549Z,4.27
2018-03-24T12:29:33.466Z,4.09
2018-03-24T12:35:24.376Z,3.77
2018-03-24T12:41:15.169Z,3.63
2018-03-24T12:47:06.059Z,2.5
2018-03-24T12:52:56.813Z,3.51
2018-03-24T12:58:47.661Z,3.89
2018-03-24T13:04:38.523Z,3.88
2018-03-24T13:10:29.389Z,3.74
2018-03-24T13:16:20.245Z,3.83
2018-03-24T13:22:11.141Z,4.26
2018-03-24T13:28:01.938Z,3.82
2018-03-24T13:33:52.871Z,3.72
2018-03-24T13:39:43.631Z,3.93
2018-03-24T13:45:34.478Z,3.14
2018-03-24T13:51:25.346Z,3.41
2018-03-24T13:57:16.179Z,3.45
2018-03-24T14:03:07.147Z,3.53
2018-03-24T14:08:57.837Z,3.3
2018-03-24T14:14:48.662Z,3.53
2018-03-24T14:20:39.517Z,3.71
2018-03-24T14:26:30.447Z,4.03
2018-03-24T14:32:21.253Z,4.1
2018-03-24T14:38:12.032Z,5.05
2018-03-24T14:44:02.869Z,11.06
2018-03-24T14:49:53.724Z,6.54
2018-03-24T14:55:44.537Z,5.22
2018-03-24T15:01:35.344Z,13.96
2018-03-24T15:07:26.214Z,7.65
2018-03-24T15:13:17.005Z,4.91
2018-03-24T15:19:07.853Z,5.08
2018-03-24T15:24:58.752Z,5.47
2018-03-24T15:30:49.606Z,4.66
2018-03-24T15:36:40.366Z,5.47
2018-03-24T15:42:31.243Z,5.23
2018-03-24T15:48:22.059Z,4.83
2018-03-24T15:54:12.872Z,5.68
2018-03-24T16:00:03.737Z,5.7
2018-03-24T16:05:54.554Z,6.04
2018-03-24T16:11:45.359Z,5.37
2018-03-24T16:17:36.239Z,5.61
2018-03-24T16:23:27.035Z,6.04
2018-03-24T16:29:17.843Z,5.96
2018-03-24T16:35:08.620Z,5.3
2018-03-24T16:40:59.447Z,5.96
2018-03-24T16:46:50.278Z,5.98
2018-03-24T16:52:41.107Z,5.63
2018-03-24T16:58:31.911Z,7.03
2018-03-24T17:04:22.694Z,8.58
2018-03-24T17:10:13.562Z,6.57
2018-03-24T17:16:04.367Z,5.65
2018-03-24T17:21:55.160Z,7.67
2018-03-24T17:27:45.957Z,7.05
2018-03-24T17:33:36.765Z,5.6
2018-03-24T17:39:27.579Z,8.14
2018-03-24T17:45:18.370Z,6.45
2018-03-24T17:51:09.164Z,5.98
2018-03-24T17:56:59.995Z,5.93
2018-03-24T18:02:50.794Z,6.61
2018-03-24T18:08:41.551Z,6.56
2018-03-24T18:14:32.386Z,7.69
2018-03-24T18:20:23.225Z,9.79
2018-03-24T18:26:13.969Z,7.41
2018-03-24T18:32:04.771Z,7.15
2018-03-24T18:37:55.562Z,6.42
2018-03-24T18:43:46.369Z,6.19
2018-03-24T18:49:37.161Z,5.61
2018-03-24T18:55:27.941Z,5.51
2018-03-24T19:01:18.753Z,6.62
2018-03-24T19:07:09.569Z,7.31
2018-03-24T19:13:00.327Z,6.42
2018-03-24T19:18:51.129Z,7.21
2018-03-24T19:24:41.964Z,6.47
2018-03-24T19:30:32.752Z,6.29
2018-03-24T19:36:23.516Z,8.44
2018-03-24T19:42:14.376Z,5.48
2018-03-24T19:48:05.072Z,6.63
2018-03-24T19:53:55.893Z,6.87
2018-03-24T19:59:46.677Z,8.19
2018-03-24T20:05:37.472Z,6.87
2018-03-24T20:11:28.259Z,7.44
2018-03-24T20:17:19.021Z,6.15
2018-03-24T20:23:09.825Z,6.05
2018-03-24T20:29:00.604Z,6.15
2018-03-24T20:34:51.372Z,5.51
2018-03-24T20:40:42.252Z,5.94
2018-03-24T20:46:32.970Z,5.54
2018-03-24T20:52:23.759Z,6.17
2018-03-24T20:58:14.547Z,6.23
2018-03-24T21:04:05.305Z,9.53
2018-03-24T21:09:56.120Z,8.7
2018-03-24T21:15:46.902Z,7.08
2018-03-24T21:21:37.770Z,7.93
2018-03-24T21:27:28.436Z,5.72
2018-03-24T21:33:19.267Z,5.51
2018-03-24T21:39:10.013Z,6.03
2018-03-24T21:45:00.816Z,5.6
2018-03-24T21:50:51.639Z,6.26
2018-03-24T21:56:42.422Z,4.91
2018-03-24T22:02:33.213Z,3.78
2018-03-24T22:08:23.869Z,4.56
2018-03-24T22:14:14.672Z,3.86
2018-03-24T22:20:05.484Z,4.18
2018-03-24T22:25:56.226Z,4.29
2018-03-24T22:31:47.018Z,4.25
2018-03-24T22:37:37.787Z,3.78
2018-03-24T22:43:28.624Z,3.84
2018-03-24T22:49:19.345Z,3.62
2018-03-24T22:55:10.102Z,4.2
2018-03-24T23:01:00.907Z,3.76
2018-03-24T23:06:51.732Z,4.16
2018-03-24T23:12:42.477Z,3.88
2018-03-24T23:18:33.267Z,3.51
2018-03-24T23:24:24.071Z,3.76
2018-03-24T23:30:14.796Z,4.86
2018-03-24T23:36:05.542Z,3.99
2018-03-24T23:41:56.364Z,3.91
2018-03-24T23:47:47.135Z,3.74
2018-03-24T23:53:37.879Z,3.92
2018-03-24T23:59:28.706Z,3.92
